sensor_id;sensor_type;location;lat;lon;timestamp;pressure;altitude;pressure_sealevel;temperature;humidity
6216;BME280;3141;49.234;9.326;2022-12-29T00:00:38;99131.22;;;12.97;57.80
6216;BME280;3141;49.234;9.326;2022-12-29T00:01:21;99128.50;;;13.05;57.54
6216;BME280;3141;49.234;9.326;2022-12-29T00:02:03;99139.91;;;13.20;57.12
6216;BME280;3141;49.234;9.326;2022-12-29T00:02:45;99132.63;;;13.08;57.37
6216;BME280;3141;49.234;9.326;2022-12-29T00:03:28;99136.63;;;13.18;57.18
6216;BME280;3141;49.234;9.326;2022-12-29T00:04:12;99137.34;;;13.27;56.69
6216;BME280;3141;49.234;9.326;2022-12-29T00:04:55;99130.84;;;13.29;57.22
6216;BME280;3141;49.234;9.326;2022-12-29T00:05:37;99127.38;;;13.14;57.70
6216;BME280;3141;49.234;9.326;2022-12-29T00:06:19;99137.69;;;13.24;57.48
6216;BME280;3141;49.234;9.326;2022-12-29T00:07:02;99137.44;;;13.33;57.48
6216;BME280;3141;49.234;9.326;2022-12-29T00:07:46;99141.06;;;13.32;56.79
6216;BME280;3141;49.234;9.326;2022-12-29T00:08:28;99132.84;;;13.27;57.07
6216;BME280;3141;49.234;9.326;2022-12-29T00:09:22;99139.69;;;13.36;56.61
6216;BME280;3141;49.234;9.326;2022-12-29T00:10:05;99136.66;;;13.39;56.49
6216;BME280;3141;49.234;9.326;2022-12-29T00:10:47;99140.53;;;13.22;57.43
6216;BME280;3141;49.234;9.326;2022-12-29T00:11:30;99137.63;;;13.17;57.85
6216;BME280;3141;49.234;9.326;2022-12-29T00:12:12;99136.53;;;13.26;57.57
6216;BME280;3141;49.234;9.326;2022-12-29T00:12:54;99127.84;;;13.18;58.08
6216;BME280;3141;49.234;9.326;2022-12-29T00:13:55;99134.34;;;13.15;57.70
6216;BME280;3141;49.234;9.326;2022-12-29T00:14:56;99134.44;;;13.22;57.47
6216;BME280;3141;49.234;9.326;2022-12-29T00:15:57;99125.56;;;13.15;57.91
6216;BME280;3141;49.234;9.326;2022-12-29T00:16:43;99118.06;;;13.18;57.95
6216;BME280;3141;49.234;9.326;2022-12-29T00:17:26;99129.13;;;13.22;57.47
6216;BME280;3141;49.234;9.326;2022-12-29T00:18:08;99127.72;;;13.26;57.76
6216;BME280;3141;49.234;9.326;2022-12-29T00:18:50;99128.38;;;13.28;57.56
6216;BME280;3141;49.234;9.326;2022-12-29T00:19:33;99124.16;;;13.33;57.10
6216;BME280;3141;49.234;9.326;2022-12-29T00:20:35;99121.69;;;13.32;57.50
6216;BME280;3141;49.234;9.326;2022-12-29T00:21:37;99122.72;;;13.16;58.10
6216;BME280;3141;49.234;9.326;2022-12-29T00:22:38;99119.25;;;13.16;58.19
6216;BME280;3141;49.234;9.326;2022-12-29T00:23:39;99109.81;;;12.99;59.02
6216;BME280;3141;49.234;9.326;2022-12-29T00:24:40;99109.47;;;12.87;58.98
6216;BME280;3141;49.234;9.326;2022-12-29T00:25:41;99108.72;;;12.93;59.11
6216;BME280;3141;49.234;9.326;2022-12-29T00:26:42;99106.31;;;12.98;59.05
6216;BME280;3141;49.234;9.326;2022-12-29T00:27:42;99110.91;;;13.19;58.44
6216;BME280;3141;49.234;9.326;2022-12-29T00:28:43;99112.19;;;13.23;57.80
6216;BME280;3141;49.234;9.326;2022-12-29T00:29:44;99104.94;;;13.31;57.95
6216;BME280;3141;49.234;9.326;2022-12-29T00:30:44;99106.69;;;13.24;57.81
6216;BME280;3141;49.234;9.326;2022-12-29T00:31:46;99113.66;;;13.25;57.98
6216;BME280;3141;49.234;9.326;2022-12-29T00:32:46;99105.41;;;13.20;58.23
6216;BME280;3141;49.234;9.326;2022-12-29T00:33:47;99110.44;;;13.15;58.50
6216;BME280;3141;49.234;9.326;2022-12-29T00:34:47;99097.72;;;13.25;57.46
6216;BME280;3141;49.234;9.326;2022-12-29T00:35:54;99106.75;;;13.31;57.74
6216;BME280;3141;49.234;9.326;2022-12-29T00:36:40;99109.66;;;13.36;57.71
6216;BME280;3141;49.234;9.326;2022-12-29T00:37:24;99105.63;;;13.40;57.92
6216;BME280;3141;49.234;9.326;2022-12-29T00:38:28;99106.09;;;13.43;57.88
6216;BME280;3141;49.234;9.326;2022-12-29T00:39:29;99107.47;;;13.39;57.70
6216;BME280;3141;49.234;9.326;2022-12-29T00:40:30;99106.84;;;13.37;57.25
6216;BME280;3141;49.234;9.326;2022-12-29T00:41:31;99103.81;;;13.40;57.40
6216;BME280;3141;49.234;9.326;2022-12-29T00:42:36;99114.69;;;13.45;57.66
6216;BME280;3141;49.234;9.326;2022-12-29T00:43:37;99099.31;;;13.41;57.48
6216;BME280;3141;49.234;9.326;2022-12-29T00:44:37;99109.97;;;13.26;58.31
6216;BME280;3141;49.234;9.326;2022-12-29T00:45:20;99101.25;;;13.32;57.92
6216;BME280;3141;49.234;9.326;2022-12-29T00:46:02;99111.13;;;13.38;57.69
6216;BME280;3141;49.234;9.326;2022-12-29T00:46:44;99109.19;;;13.47;57.17
6216;BME280;3141;49.234;9.326;2022-12-29T00:47:27;99104.25;;;13.44;57.75
6216;BME280;3141;49.234;9.326;2022-12-29T00:48:09;99106.31;;;13.27;57.83
6216;BME280;3141;49.234;9.326;2022-12-29T00:48:51;99104.28;;;13.29;57.78
6216;BME280;3141;49.234;9.326;2022-12-29T00:49:52;99112.31;;;13.36;57.74
6216;BME280;3141;49.234;9.326;2022-12-29T00:50:34;99111.78;;;13.40;57.61
6216;BME280;3141;49.234;9.326;2022-12-29T00:51:17;99112.28;;;13.50;57.11
6216;BME280;3141;49.234;9.326;2022-12-29T00:52:10;99115.88;;;13.43;57.20
6216;BME280;3141;49.234;9.326;2022-12-29T00:52:53;99119.94;;;13.39;57.27
6216;BME280;3141;49.234;9.326;2022-12-29T00:53:35;99122.94;;;13.36;57.68
6216;BME280;3141;49.234;9.326;2022-12-29T00:54:18;99115.88;;;13.43;57.69
6216;BME280;3141;49.234;9.326;2022-12-29T00:55:00;99116.97;;;13.48;57.34
6216;BME280;3141;49.234;9.326;2022-12-29T00:55:44;99117.22;;;13.53;57.39
6216;BME280;3141;49.234;9.326;2022-12-29T00:56:26;99111.78;;;13.40;57.43
6216;BME280;3141;49.234;9.326;2022-12-29T00:57:09;99125.97;;;13.47;57.42
6216;BME280;3141;49.234;9.326;2022-12-29T00:57:51;99119.84;;;13.32;57.68
6216;BME280;3141;49.234;9.326;2022-12-29T00:58:34;99117.38;;;13.31;57.97
6216;BME280;3141;49.234;9.326;2022-12-29T00:59:16;99121.72;;;13.17;58.17
6216;BME280;3141;49.234;9.326;2022-12-29T00:59:59;99128.38;;;13.28;57.63
6216;BME280;3141;49.234;9.326;2022-12-29T01:00:41;99129.34;;;13.41;57.62
6216;BME280;3141;49.234;9.326;2022-12-29T01:01:23;99125.16;;;13.32;57.69
6216;BME280;3141;49.234;9.326;2022-12-29T01:02:06;99123.50;;;13.31;57.73
6216;BME280;3141;49.234;9.326;2022-12-29T01:02:48;99130.84;;;13.29;57.44
6216;BME280;3141;49.234;9.326;2022-12-29T01:03:32;99125.44;;;13.37;57.38
6216;BME280;3141;49.234;9.326;2022-12-29T01:04:14;99116.72;;;13.43;57.58
6216;BME280;3141;49.234;9.326;2022-12-29T01:04:57;99123.91;;;13.28;58.14
6216;BME280;3141;49.234;9.326;2022-12-29T01:05:39;99133.41;;;13.37;57.84
6216;BME280;3141;49.234;9.326;2022-12-29T01:06:22;99125.72;;;13.28;57.63
6216;BME280;3141;49.234;9.326;2022-12-29T01:07:04;99123.13;;;13.34;57.62
6216;BME280;3141;49.234;9.326;2022-12-29T01:07:47;99137.69;;;13.38;57.29
6216;BME280;3141;49.234;9.326;2022-12-29T01:08:30;99138.34;;;13.40;57.32
6216;BME280;3141;49.234;9.326;2022-12-29T01:09:12;99134.28;;;13.44;57.33
6216;BME280;3141;49.234;9.326;2022-12-29T01:10:13;99131.75;;;13.36;57.45
6216;BME280;3141;49.234;9.326;2022-12-29T01:11:01;99149.59;;;13.42;57.30
6216;BME280;3141;49.234;9.326;2022-12-29T01:11:44;99146.56;;;13.45;57.42
6216;BME280;3141;49.234;9.326;2022-12-29T01:12:26;99145.34;;;13.48;57.04
6216;BME280;3141;49.234;9.326;2022-12-29T01:13:29;99145.13;;;13.64;56.98
6216;BME280;3141;49.234;9.326;2022-12-29T01:14:11;99145.44;;;13.54;57.04
6216;BME280;3141;49.234;9.326;2022-12-29T01:14:54;99154.66;;;13.58;57.20
6216;BME280;3141;49.234;9.326;2022-12-29T01:15:36;99157.19;;;13.45;57.16
6216;BME280;3141;49.234;9.326;2022-12-29T01:16:18;99147.09;;;13.41;57.41
6216;BME280;3141;49.234;9.326;2022-12-29T01:17:01;99160.47;;;13.47;58.02
6216;BME280;3141;49.234;9.326;2022-12-29T01:17:43;99161.38;;;13.54;57.77
6216;BME280;3141;49.234;9.326;2022-12-29T01:18:26;99152.38;;;13.55;58.21
6216;BME280;3141;49.234;9.326;2022-12-29T01:19:09;99151.91;;;13.66;57.74
6216;BME280;3141;49.234;9.326;2022-12-29T01:19:51;99154.91;;;13.63;57.25
6216;BME280;3141;49.234;9.326;2022-12-29T01:20:33;99158.47;;;13.49;57.47
6216;BME280;3141;49.234;9.326;2022-12-29T01:21:16;99166.78;;;13.46;57.71
6216;BME280;3141;49.234;9.326;2022-12-29T01:21:58;99162.38;;;13.53;57.54
6216;BME280;3141;49.234;9.326;2022-12-29T01:22:40;99165.78;;;13.47;57.72
6216;BME280;3141;49.234;9.326;2022-12-29T01:23:24;99167.94;;;13.58;57.64
6216;BME280;3141;49.234;9.326;2022-12-29T01:24:06;99172.00;;;13.54;57.94
6216;BME280;3141;49.234;9.326;2022-12-29T01:24:49;99163.78;;;13.49;57.90
6216;BME280;3141;49.234;9.326;2022-12-29T01:25:31;99168.06;;;13.50;58.12
6216;BME280;3141;49.234;9.326;2022-12-29T01:26:15;99164.50;;;13.43;58.16
6216;BME280;3141;49.234;9.326;2022-12-29T01:26:58;99164.13;;;13.46;58.58
6216;BME280;3141;49.234;9.326;2022-12-29T01:27:40;99161.19;;;13.41;58.47
6216;BME280;3141;49.234;9.326;2022-12-29T01:28:23;99174.28;;;13.57;57.95
6216;BME280;3141;49.234;9.326;2022-12-29T01:29:05;99173.75;;;13.68;57.77
6216;BME280;3141;49.234;9.326;2022-12-29T01:29:47;99178.66;;;13.65;57.97
6216;BME280;3141;49.234;9.326;2022-12-29T01:30:30;99175.44;;;13.69;57.73
6216;BME280;3141;49.234;9.326;2022-12-29T01:31:14;99177.44;;;13.67;58.04
6216;BME280;3141;49.234;9.326;2022-12-29T01:31:56;99171.31;;;13.67;57.86
6216;BME280;3141;49.234;9.326;2022-12-29T01:32:39;99174.81;;;13.88;57.56
6216;BME280;3141;49.234;9.326;2022-12-29T01:33:21;99180.75;;;13.69;57.80
6216;BME280;3141;49.234;9.326;2022-12-29T01:34:04;99176.53;;;13.75;57.88
6216;BME280;3141;49.234;9.326;2022-12-29T01:34:46;99175.19;;;13.85;57.88
6216;BME280;3141;49.234;9.326;2022-12-29T01:35:29;99176.72;;;13.73;58.43
6216;BME280;3141;49.234;9.326;2022-12-29T01:36:16;99183.22;;;13.71;58.86
6216;BME280;3141;49.234;9.326;2022-12-29T01:36:58;99183.66;;;13.74;59.32
6216;BME280;3141;49.234;9.326;2022-12-29T01:37:41;99191.19;;;13.71;59.75
6216;BME280;3141;49.234;9.326;2022-12-29T01:38:23;99178.09;;;13.55;60.48
6216;BME280;3141;49.234;9.326;2022-12-29T01:39:05;99172.91;;;13.47;61.86
6216;BME280;3141;49.234;9.326;2022-12-29T01:39:48;99173.63;;;13.55;62.26
6216;BME280;3141;49.234;9.326;2022-12-29T01:40:30;99167.59;;;13.61;63.04
6216;BME280;3141;49.234;9.326;2022-12-29T01:41:17;99177.91;;;13.56;62.99
6216;BME280;3141;49.234;9.326;2022-12-29T01:42:00;99166.88;;;13.53;63.64
6216;BME280;3141;49.234;9.326;2022-12-29T01:42:42;99172.91;;;13.61;63.84
6216;BME280;3141;49.234;9.326;2022-12-29T01:43:40;99176.03;;;13.50;64.13
6216;BME280;3141;49.234;9.326;2022-12-29T01:45:32;99172.72;;;13.48;64.72
6216;BME280;3141;49.234;9.326;2022-12-29T01:47:59;99176.84;;;13.51;65.28
6216;BME280;3141;49.234;9.326;2022-12-29T01:48:34;99171.81;;;13.41;65.33
6216;BME280;3141;49.234;9.326;2022-12-29T01:49:24;99168.78;;;13.59;64.78
6216;BME280;3141;49.234;9.326;2022-12-29T01:50:11;99172.66;;;13.42;65.12
6216;BME280;3141;49.234;9.326;2022-12-29T01:50:55;99171.34;;;13.52;65.12
6216;BME280;3141;49.234;9.326;2022-12-29T01:51:45;99160.78;;;13.73;64.44
6216;BME280;3141;49.234;9.326;2022-12-29T01:52:32;99163.78;;;13.49;65.15
6216;BME280;3141;49.234;9.326;2022-12-29T01:53:24;99167.28;;;13.56;64.89
6216;BME280;3141;49.234;9.326;2022-12-29T01:54:13;99166.56;;;13.62;65.09
6216;BME280;3141;49.234;9.326;2022-12-29T01:54:57;99160.94;;;13.51;64.71
6216;BME280;3141;49.234;9.326;2022-12-29T01:55:45;99163.97;;;13.33;65.55
6216;BME280;3141;49.234;9.326;2022-12-29T01:56:28;99161.59;;;13.38;65.70
6216;BME280;3141;49.234;9.326;2022-12-29T01:57:16;99159.38;;;13.42;65.82
6216;BME280;3141;49.234;9.326;2022-12-29T01:58:02;99159.56;;;13.40;65.80
6216;BME280;3141;49.234;9.326;2022-12-29T01:58:48;99151.34;;;13.35;65.65
6216;BME280;3141;49.234;9.326;2022-12-29T01:59:37;99156.00;;;13.33;66.40
6216;BME280;3141;49.234;9.326;2022-12-29T02:00:21;99150.19;;;13.44;65.93
6216;BME280;3141;49.234;9.326;2022-12-29T02:01:04;99158.47;;;13.49;65.88
6216;BME280;3141;49.234;9.326;2022-12-29T02:01:46;99154.53;;;13.45;65.65
6216;BME280;3141;49.234;9.326;2022-12-29T02:02:29;99150.44;;;13.28;66.46
6216;BME280;3141;49.234;9.326;2022-12-29T02:03:12;99150.06;;;13.31;66.38
6216;BME280;3141;49.234;9.326;2022-12-29T02:03:55;99140.13;;;13.04;66.86
6216;BME280;3141;49.234;9.326;2022-12-29T02:04:40;99145.84;;;13.22;66.66
6216;BME280;3141;49.234;9.326;2022-12-29T02:05:32;99145.66;;;13.38;66.18
6216;BME280;3141;49.234;9.326;2022-12-29T02:06:22;99148.94;;;13.40;66.04
6216;BME280;3141;49.234;9.326;2022-12-29T02:07:08;99149.59;;;13.42;65.77
6216;BME280;3141;49.234;9.326;2022-12-29T02:07:53;99149.03;;;13.32;66.18
6216;BME280;3141;49.234;9.326;2022-12-29T02:08:37;99156.72;;;13.42;65.87
6216;BME280;3141;49.234;9.326;2022-12-29T02:09:20;99156.16;;;13.46;65.91
6216;BME280;3141;49.234;9.326;2022-12-29T02:10:03;99145.59;;;13.32;66.35
6216;BME280;3141;49.234;9.326;2022-12-29T02:10:47;99148.31;;;13.38;66.11
6216;BME280;3141;49.234;9.326;2022-12-29T02:11:29;99144.75;;;13.31;66.23
6216;BME280;3141;49.234;9.326;2022-12-29T02:12:12;99144.56;;;13.33;66.17
6216;BME280;3141;49.234;9.326;2022-12-29T02:12:55;99143.63;;;13.40;66.12
6216;BME280;3141;49.234;9.326;2022-12-29T02:13:38;99139.31;;;13.39;65.78
6216;BME280;3141;49.234;9.326;2022-12-29T02:14:20;99146.03;;;13.56;65.77
6216;BME280;3141;49.234;9.326;2022-12-29T02:15:03;99149.53;;;13.57;65.67
6216;BME280;3141;49.234;9.326;2022-12-29T02:17:18;99143.50;;;13.48;65.82
6216;BME280;3141;49.234;9.326;2022-12-29T02:21:56;99130.44;;;13.47;66.22
6216;BME280;3141;49.234;9.326;2022-12-29T02:23:18;99143.69;;;13.61;66.04
6216;BME280;3141;49.234;9.326;2022-12-29T02:26:29;99134.88;;;13.61;66.03
6216;BME280;3141;49.234;9.326;2022-12-29T02:30:55;99138.38;;;13.61;66.36
6216;BME280;3141;49.234;9.326;2022-12-29T02:31:59;99134.50;;;13.64;66.20
6216;BME280;3141;49.234;9.326;2022-12-29T02:34:49;99132.25;;;13.46;66.78
6216;BME280;3141;49.234;9.326;2022-12-29T02:35:41;99132.00;;;13.41;66.76
6216;BME280;3141;49.234;9.326;2022-12-29T02:36:37;99120.66;;;13.47;66.72
6216;BME280;3141;49.234;9.326;2022-12-29T02:37:25;99110.06;;;13.33;66.99
6216;BME280;3141;49.234;9.326;2022-12-29T02:39:23;99120.31;;;13.57;66.22
6216;BME280;3141;49.234;9.326;2022-12-29T02:40:27;99115.06;;;13.63;66.10
6216;BME280;3141;49.234;9.326;2022-12-29T02:43:38;99116.47;;;13.59;65.90
6216;BME280;3141;49.234;9.326;2022-12-29T02:44:45;99108.44;;;13.53;66.24
6216;BME280;3141;49.234;9.326;2022-12-29T02:45:45;99105.06;;;13.44;66.65
6216;BME280;3141;49.234;9.326;2022-12-29T02:46:41;99103.88;;;13.47;66.94
6216;BME280;3141;49.234;9.326;2022-12-29T02:47:40;99104.13;;;13.52;66.67
6216;BME280;3141;49.234;9.326;2022-12-29T02:48:39;99107.50;;;13.60;66.31
6216;BME280;3141;49.234;9.326;2022-12-29T02:49:32;99100.56;;;13.59;66.10
6216;BME280;3141;49.234;9.326;2022-12-29T02:50:20;99105.22;;;13.57;66.02
6216;BME280;3141;49.234;9.326;2022-12-29T02:51:12;99105.47;;;13.62;66.00
6216;BME280;3141;49.234;9.326;2022-12-29T02:52:59;99101.72;;;13.57;65.87
6216;BME280;3141;49.234;9.326;2022-12-29T02:53:42;99099.47;;;13.54;65.76
6216;BME280;3141;49.234;9.326;2022-12-29T02:54:43;99098.25;;;13.56;65.86
6216;BME280;3141;49.234;9.326;2022-12-29T02:55:25;99099.53;;;13.60;65.51
6216;BME280;3141;49.234;9.326;2022-12-29T02:56:08;99097.69;;;13.61;65.31
6216;BME280;3141;49.234;9.326;2022-12-29T02:56:50;99095.88;;;13.61;65.30
6216;BME280;3141;49.234;9.326;2022-12-29T02:57:34;99098.41;;;13.69;65.10
6216;BME280;3141;49.234;9.326;2022-12-29T02:58:20;99091.25;;;13.70;65.21
6216;BME280;3141;49.234;9.326;2022-12-29T02:59:03;99092.44;;;13.67;64.72
6216;BME280;3141;49.234;9.326;2022-12-29T02:59:46;99094.72;;;13.70;65.06
6216;BME280;3141;49.234;9.326;2022-12-29T03:00:30;99095.69;;;13.63;64.69
6216;BME280;3141;49.234;9.326;2022-12-29T03:02:32;99088.53;;;13.63;64.72
6216;BME280;3141;49.234;9.326;2022-12-29T03:03:33;99096.94;;;13.67;64.29
6216;BME280;3141;49.234;9.326;2022-12-29T03:04:32;99092.84;;;13.64;64.16
6216;BME280;3141;49.234;9.326;2022-12-29T03:08:20;99087.78;;;13.69;63.73
6216;BME280;3141;49.234;9.326;2022-12-29T03:09:20;99092.91;;;13.71;63.86
6216;BME280;3141;49.234;9.326;2022-12-29T03:11:14;99091.44;;;13.68;63.31
6216;BME280;3141;49.234;9.326;2022-12-29T03:12:27;99097.50;;;13.83;63.36
6216;BME280;3141;49.234;9.326;2022-12-29T03:14:55;99101.56;;;13.79;63.12
6216;BME280;3141;49.234;9.326;2022-12-29T03:16:07;99085.13;;;13.69;62.98
6216;BME280;3141;49.234;9.326;2022-12-29T03:16:59;99086.88;;;13.83;62.89
6216;BME280;3141;49.234;9.326;2022-12-29T03:17:55;99085.66;;;13.86;62.51
6216;BME280;3141;49.234;9.326;2022-12-29T03:19:30;99099.66;;;13.94;62.06
6216;BME280;3141;49.234;9.326;2022-12-29T03:20:20;99082.03;;;13.87;62.28
6216;BME280;3141;49.234;9.326;2022-12-29T03:21:39;99085.38;;;13.96;61.96
6216;BME280;3141;49.234;9.326;2022-12-29T03:22:43;99083.41;;;13.83;62.33
6216;BME280;3141;49.234;9.326;2022-12-29T03:23:29;99086.34;;;13.94;61.96
6216;BME280;3141;49.234;9.326;2022-12-29T03:24:13;99079.72;;;13.84;61.88
6216;BME280;3141;49.234;9.326;2022-12-29T03:25:44;99085.75;;;13.93;62.00
6216;BME280;3141;49.234;9.326;2022-12-29T03:26:05;99085.47;;;13.87;62.36
6216;BME280;3141;49.234;9.326;2022-12-29T03:26:50;99078.28;;;13.81;62.16
6216;BME280;3141;49.234;9.326;2022-12-29T03:27:46;99088.06;;;13.81;62.48
6216;BME280;3141;49.234;9.326;2022-12-29T03:28:36;99081.56;;;13.83;62.39
6216;BME280;3141;49.234;9.326;2022-12-29T03:29:20;99076.75;;;13.93;62.19
6216;BME280;3141;49.234;9.326;2022-12-29T03:30:04;99078.97;;;13.90;61.75
6216;BME280;3141;49.234;9.326;2022-12-29T03:30:48;99082.94;;;14.01;62.13
6216;BME280;3141;49.234;9.326;2022-12-29T03:31:30;99082.13;;;14.00;61.77
6216;BME280;3141;49.234;9.326;2022-12-29T03:32:15;99088.34;;;14.14;61.58
6216;BME280;3141;49.234;9.326;2022-12-29T03:33:02;99092.88;;;14.13;61.27
6216;BME280;3141;49.234;9.326;2022-12-29T03:33:46;99094.66;;;14.06;61.70
6216;BME280;3141;49.234;9.326;2022-12-29T03:34:29;99096.34;;;14.14;61.39
6216;BME280;3141;49.234;9.326;2022-12-29T03:35:15;99094.47;;;14.08;61.48
6216;BME280;3141;49.234;9.326;2022-12-29T03:36:02;99089.53;;;14.05;61.88
6216;BME280;3141;49.234;9.326;2022-12-29T03:36:53;99094.47;;;14.08;62.14
6216;BME280;3141;49.234;9.326;2022-12-29T03:37:40;99087.13;;;14.10;62.39
6216;BME280;3141;49.234;9.326;2022-12-29T03:38:28;99087.28;;;14.08;62.83
6216;BME280;3141;49.234;9.326;2022-12-29T03:39:13;99090.91;;;14.01;63.10
6216;BME280;3141;49.234;9.326;2022-12-29T03:39:56;99075.97;;;14.00;63.64
6216;BME280;3141;49.234;9.326;2022-12-29T03:40:42;99086.59;;;14.00;64.44
6216;BME280;3141;49.234;9.326;2022-12-29T03:41:29;99074.34;;;13.99;64.19
6216;BME280;3141;49.234;9.326;2022-12-29T03:42:15;99082.13;;;14.00;64.65
6216;BME280;3141;49.234;9.326;2022-12-29T03:43:00;99083.91;;;13.93;64.65
6216;BME280;3141;49.234;9.326;2022-12-29T03:43:43;99082.72;;;13.74;65.97
6216;BME280;3141;49.234;9.326;2022-12-29T03:44:36;99085.69;;;13.65;66.49
6216;BME280;3141;49.234;9.326;2022-12-29T03:45:19;99080.28;;;13.58;66.91
6216;BME280;3141;49.234;9.326;2022-12-29T03:46:01;99071.59;;;13.64;66.33
6216;BME280;3141;49.234;9.326;2022-12-29T03:46:44;99078.59;;;13.72;66.24
6216;BME280;3141;49.234;9.326;2022-12-29T03:47:26;99080.69;;;13.76;66.37
6216;BME280;3141;49.234;9.326;2022-12-29T03:48:08;99082.22;;;13.64;66.25
6216;BME280;3141;49.234;9.326;2022-12-29T03:48:51;99074.97;;;13.58;66.69
6216;BME280;3141;49.234;9.326;2022-12-29T03:49:33;99072.13;;;13.60;66.48
6216;BME280;3141;49.234;9.326;2022-12-29T03:50:16;99071.34;;;13.59;66.23
6216;BME280;3141;49.234;9.326;2022-12-29T03:50:58;99071.88;;;13.55;66.45
6216;BME280;3141;49.234;9.326;2022-12-29T03:51:40;99065.69;;;13.48;66.96
6216;BME280;3141;49.234;9.326;2022-12-29T03:52:23;99070.44;;;13.52;66.78
6216;BME280;3141;49.234;9.326;2022-12-29T03:53:05;99073.28;;;13.51;66.13
6216;BME280;3141;49.234;9.326;2022-12-29T03:53:47;99069.81;;;13.50;66.59
6216;BME280;3141;49.234;9.326;2022-12-29T03:54:30;99071.81;;;13.48;67.67
6216;BME280;3141;49.234;9.326;2022-12-29T03:55:13;99074.53;;;13.55;67.12
6216;BME280;3141;49.234;9.326;2022-12-29T03:55:55;99072.34;;;13.58;67.09
6216;BME280;3141;49.234;9.326;2022-12-29T03:56:37;99079.94;;;13.61;67.06
6216;BME280;3141;49.234;9.326;2022-12-29T03:57:20;99080.09;;;13.60;67.11
6216;BME280;3141;49.234;9.326;2022-12-29T03:58:02;99085.88;;;13.63;66.87
6216;BME280;3141;49.234;9.326;2022-12-29T03:58:44;99072.72;;;13.55;67.24
6216;BME280;3141;49.234;9.326;2022-12-29T03:59:27;99083.97;;;13.57;67.42
6216;BME280;3141;49.234;9.326;2022-12-29T04:00:09;99079.31;;;13.59;67.97
6216;BME280;3141;49.234;9.326;2022-12-29T04:00:52;99077.63;;;13.58;67.22
6216;BME280;3141;49.234;9.326;2022-12-29T04:01:34;99078.28;;;13.60;67.38
6216;BME280;3141;49.234;9.326;2022-12-29T04:02:17;99070.25;;;13.54;67.66
6216;BME280;3141;49.234;9.326;2022-12-29T04:02:59;99069.44;;;13.53;67.28
6216;BME280;3141;49.234;9.326;2022-12-29T04:03:41;99071.34;;;13.59;67.52
6216;BME280;3141;49.234;9.326;2022-12-29T04:04:24;99070.69;;;13.57;67.27
6216;BME280;3141;49.234;9.326;2022-12-29T04:05:06;99061.59;;;13.45;67.52
6216;BME280;3141;49.234;9.326;2022-12-29T04:05:48;99066.06;;;13.45;67.43
6216;BME280;3141;49.234;9.326;2022-12-29T04:06:31;99065.63;;;13.41;67.11
6216;BME280;3141;49.234;9.326;2022-12-29T04:07:13;99075.50;;;13.47;66.67
6216;BME280;3141;49.234;9.326;2022-12-29T04:07:55;99078.41;;;13.52;66.73
6216;BME280;3141;49.234;9.326;2022-12-29T04:08:38;99076.50;;;13.46;66.91
6216;BME280;3141;49.234;9.326;2022-12-29T04:09:20;99074.47;;;13.48;67.06
6216;BME280;3141;49.234;9.326;2022-12-29T04:10:03;99079.06;;;13.54;66.74
6216;BME280;3141;49.234;9.326;2022-12-29T04:10:45;99076.47;;;13.61;66.50
6216;BME280;3141;49.234;9.326;2022-12-29T04:11:27;99077.28;;;13.61;65.87
6216;BME280;3141;49.234;9.326;2022-12-29T04:12:10;99080.53;;;13.63;66.16
6216;BME280;3141;49.234;9.326;2022-12-29T04:12:52;99078.81;;;13.49;66.37
6216;BME280;3141;49.234;9.326;2022-12-29T04:13:34;99087.56;;;13.50;66.18
6216;BME280;3141;49.234;9.326;2022-12-29T04:14:17;99081.81;;;13.46;66.49
6216;BME280;3141;49.234;9.326;2022-12-29T04:14:59;99072.22;;;13.45;66.94
6216;BME280;3141;49.234;9.326;2022-12-29T04:15:43;99075.50;;;13.47;67.13
6216;BME280;3141;49.234;9.326;2022-12-29T04:16:25;99071.81;;;13.48;66.67
6216;BME280;3141;49.234;9.326;2022-12-29T04:17:07;99075.13;;;13.50;67.03
6216;BME280;3141;49.234;9.326;2022-12-29T04:17:50;99070.94;;;13.41;67.57
6216;BME280;3141;49.234;9.326;2022-12-29T04:18:32;99065.25;;;13.44;67.98
6216;BME280;3141;49.234;9.326;2022-12-29T04:19:14;99075.75;;;13.52;67.68
6216;BME280;3141;49.234;9.326;2022-12-29T04:19:56;99066.97;;;13.52;67.86
6216;BME280;3141;49.234;9.326;2022-12-29T04:20:59;99070.25;;;13.54;68.31
6216;BME280;3141;49.234;9.326;2022-12-29T04:21:47;99066.97;;;13.52;67.73
6216;BME280;3141;49.234;9.326;2022-12-29T04:22:29;99060.81;;;13.51;68.45
6216;BME280;3141;49.234;9.326;2022-12-29T04:23:12;99060.47;;;13.54;68.21
6216;BME280;3141;49.234;9.326;2022-12-29T04:23:54;99053.25;;;13.48;68.54
6216;BME280;3141;49.234;9.326;2022-12-29T04:24:36;99059.94;;;13.44;68.57
6216;BME280;3141;49.234;9.326;2022-12-29T04:25:19;99055.00;;;13.41;68.67
6216;BME280;3141;49.234;9.326;2022-12-29T04:26:01;99052.34;;;13.41;68.91
6216;BME280;3141;49.234;9.326;2022-12-29T04:26:44;99052.47;;;13.33;69.33
6216;BME280;3141;49.234;9.326;2022-12-29T04:27:26;99050.22;;;13.30;69.40
6216;BME280;3141;49.234;9.326;2022-12-29T04:28:09;99046.91;;;13.28;69.30
6216;BME280;3141;49.234;9.326;2022-12-29T04:28:51;99045.13;;;13.14;70.07
6216;BME280;3141;49.234;9.326;2022-12-29T04:29:33;99041.00;;;13.12;70.17
6216;BME280;3141;49.234;9.326;2022-12-29T04:30:16;99033.88;;;13.12;70.49
6216;BME280;3141;49.234;9.326;2022-12-29T04:30:58;99028.13;;;13.09;70.25
6216;BME280;3141;49.234;9.326;2022-12-29T04:31:41;99033.81;;;13.06;70.89
6216;BME280;3141;49.234;9.326;2022-12-29T04:32:23;99030.78;;;12.94;70.96
6216;BME280;3141;49.234;9.326;2022-12-29T04:33:05;99025.09;;;12.97;71.04
6216;BME280;3141;49.234;9.326;2022-12-29T04:33:48;99017.13;;;12.97;70.72
6216;BME280;3141;49.234;9.326;2022-12-29T04:34:30;99014.41;;;12.91;71.42
6216;BME280;3141;49.234;9.326;2022-12-29T04:35:12;99019.16;;;12.95;71.19
6216;BME280;3141;49.234;9.326;2022-12-29T04:35:55;99017.22;;;12.89;70.51
6216;BME280;3141;49.234;9.326;2022-12-29T04:36:37;99015.16;;;12.85;68.80
6216;BME280;3141;49.234;9.326;2022-12-29T04:37:21;99014.03;;;12.94;68.67
6216;BME280;3141;49.234;9.326;2022-12-29T04:38:04;99014.94;;;13.01;68.55
6216;BME280;3141;49.234;9.326;2022-12-29T04:38:46;99012.47;;;12.99;68.78
6216;BME280;3141;49.234;9.326;2022-12-29T04:39:28;99016.94;;;12.99;69.14
6216;BME280;3141;49.234;9.326;2022-12-29T04:40:11;99022.53;;;13.04;69.29
6216;BME280;3141;49.234;9.326;2022-12-29T04:40:53;99014.84;;;13.09;68.57
6216;BME280;3141;49.234;9.326;2022-12-29T04:41:36;99016.84;;;13.07;67.96
6216;BME280;3141;49.234;9.326;2022-12-29T04:42:18;99021.97;;;13.08;68.01
6216;BME280;3141;49.234;9.326;2022-12-29T04:43:00;99015.03;;;13.07;68.38